createdAt,value
2018-01-26T00:00:25.656Z,8.15
2018-01-26T00:02:53.777Z,4.55
2018-01-26T00:05:21.887Z,6.95
2018-01-26T00:07:50.373Z,4.50
2018-01-26T00:10:18.491Z,5.70
2018-01-26T00:12:46.605Z,7.30
2018-01-26T00:15:15.496Z,5.05
2018-01-26T00:17:44.367Z,8.32
2018-01-26T00:20:12.493Z,4.97
2018-01-26T00:22:40.604Z,5.30
2018-01-26T00:25:08.726Z,6.60
2018-01-26T00:27:36.851Z,4.47
2018-01-26T00:30:04.964Z,9.48
2018-01-26T00:32:33.104Z,7.20
2018-01-26T00:35:01.230Z,25.20
2018-01-26T00:37:30.119Z,6.47
2018-01-26T00:39:58.248Z,4.55
2018-01-26T00:42:26.374Z,5.97
2018-01-26T00:44:54.511Z,6.20
2018-01-26T00:47:23.399Z,6.28
2018-01-26T00:49:52.296Z,6.07
2018-01-26T00:52:20.427Z,7.85
2018-01-26T00:54:48.547Z,9.15
2018-01-26T00:57:16.688Z,7.03
2018-01-26T00:59:44.833Z,7.10
2018-01-26T01:02:12.961Z,9.32
2018-01-26T01:04:41.848Z,4.22
2018-01-26T01:07:10.765Z,4.62
2018-01-26T01:09:38.894Z,5.03
2018-01-26T01:12:07.015Z,5.40
2018-01-26T01:14:35.160Z,5.05
2018-01-26T01:17:04.049Z,5.28
2018-01-26T01:19:32.941Z,6.45
2018-01-26T01:22:01.826Z,6.57
2018-01-26T01:24:30.722Z,7.75
2018-01-26T01:26:59.618Z,5.10
2018-01-26T01:29:27.756Z,6.25
2018-01-26T01:31:55.882Z,7.12
2018-01-26T01:34:23.993Z,6.18
2018-01-26T01:36:52.113Z,9.02
2018-01-26T01:39:21.006Z,6.30
2018-01-26T01:41:50.223Z,4.37
2018-01-26T01:44:18.336Z,6.80
2018-01-26T01:46:46.442Z,6.22
2018-01-26T01:49:16.312Z,5.68
2018-01-26T01:51:44.433Z,5.10
2018-01-26T01:54:13.332Z,7.70
2018-01-26T01:56:41.455Z,7.20
2018-01-26T01:59:09.611Z,8.95
2018-01-26T02:01:37.734Z,7.75
2018-01-26T02:04:06.623Z,7.72
2018-01-26T02:06:35.527Z,8.95
2018-01-26T02:09:04.412Z,13.68
2018-01-26T02:11:33.300Z,5.20
2018-01-26T02:14:02.194Z,6.05
2018-01-26T02:16:31.081Z,8.10
2018-01-26T02:18:59.967Z,9.48
2018-01-26T02:21:28.863Z,7.85
2018-01-26T02:23:57.772Z,7.90
2018-01-26T02:26:25.883Z,9.40
2018-01-26T02:28:54.025Z,11.90
2018-01-26T02:31:22.143Z,9.98
2018-01-26T02:33:50.265Z,14.00
2018-01-26T02:36:18.390Z,9.20
2018-01-26T02:38:47.302Z,12.27
2018-01-26T02:41:15.440Z,8.57
2018-01-26T02:43:43.554Z,9.73
2018-01-26T02:46:12.443Z,8.88
2018-01-26T02:48:41.336Z,4.43
2018-01-26T02:51:10.220Z,5.93
2018-01-26T02:53:38.372Z,6.90
2018-01-26T02:56:06.486Z,6.53
2018-01-26T02:58:35.381Z,5.40
2018-01-26T03:01:04.263Z,5.70
2018-01-26T03:03:33.175Z,6.85
2018-01-26T03:06:01.315Z,6.30
2018-01-26T03:08:30.197Z,5.45
2018-01-26T03:10:58.315Z,14.07
2018-01-26T03:13:26.470Z,6.43
2018-01-26T03:15:55.352Z,7.35
2018-01-26T03:18:24.585Z,9.98
2018-01-26T03:20:52.700Z,5.80
2018-01-26T03:23:20.822Z,5.53
2018-01-26T03:25:48.939Z,8.30
2018-01-26T03:28:17.073Z,14.52
2018-01-26T03:30:45.212Z,10.80
2018-01-26T03:33:14.077Z,7.07
2018-01-26T03:35:42.197Z,5.50
2018-01-26T03:38:10.327Z,8.68
2018-01-26T03:40:38.436Z,6.35
2018-01-26T03:43:07.687Z,3.58
2018-01-26T03:45:35.801Z,5.90
2018-01-26T03:48:04.678Z,6.45
2018-01-26T03:50:32.795Z,4.37
2018-01-26T03:53:00.911Z,6.75
2018-01-26T03:55:29.051Z,5.75
2018-01-26T03:57:57.171Z,13.07
2018-01-26T04:00:26.065Z,4.10
2018-01-26T04:02:54.207Z,6.28
2018-01-26T04:05:22.316Z,4.43
2018-01-26T04:07:51.222Z,8.32
2018-01-26T04:10:20.099Z,5.87
2018-01-26T04:12:49.033Z,11.20
2018-01-26T04:15:17.190Z,10.30
2018-01-26T04:17:45.313Z,7.97
2018-01-26T04:20:13.450Z,14.90
2018-01-26T04:22:41.591Z,7.68
2018-01-26T04:25:10.475Z,7.78
2018-01-26T04:27:39.379Z,8.70
2018-01-26T04:30:08.265Z,12.30
2018-01-26T04:32:37.164Z,10.25
2018-01-26T04:35:05.282Z,8.52
2018-01-26T04:37:33.412Z,7.25
2018-01-26T04:40:02.312Z,10.23
2018-01-26T04:42:30.445Z,9.90
2018-01-26T04:44:58.574Z,9.05
2018-01-26T04:47:26.713Z,13.30
2018-01-26T04:49:55.589Z,13.18
2018-01-26T04:52:24.501Z,9.68
2018-01-26T04:54:53.390Z,7.90
2018-01-26T04:57:22.313Z,13.62
2018-01-26T04:59:50.446Z,11.05
2018-01-26T05:02:19.365Z,9.98
2018-01-26T05:04:48.252Z,11.73
2018-01-26T05:07:16.380Z,10.50
2018-01-26T05:09:44.514Z,9.27
2018-01-26T05:12:12.623Z,10.65
2018-01-26T05:14:40.752Z,8.13
2018-01-26T05:17:08.875Z,11.07
2018-01-26T05:19:37.002Z,9.35
2018-01-26T05:22:05.137Z,11.25
2018-01-26T05:24:34.036Z,13.18
2018-01-26T05:27:02.919Z,10.85
2018-01-26T05:29:31.820Z,10.73
2018-01-26T05:32:00.701Z,7.65
2018-01-26T05:34:29.599Z,9.02
2018-01-26T05:36:58.512Z,16.48
2018-01-26T05:39:26.738Z,11.50
2018-01-26T05:41:54.872Z,12.50
2018-01-26T05:44:23.760Z,7.95
2018-01-26T05:46:51.906Z,7.53
2018-01-26T05:49:20.789Z,8.45
2018-01-26T05:51:49.671Z,10.25
2018-01-26T05:54:18.567Z,10.05
2018-01-26T05:56:47.444Z,7.53
2018-01-26T05:59:15.598Z,9.23
2018-01-26T06:01:43.703Z,10.52
2018-01-26T06:04:12.598Z,9.25
2018-01-26T06:06:41.475Z,7.78
2018-01-26T06:09:09.616Z,12.85
2018-01-26T06:11:37.771Z,9.63
2018-01-26T06:14:05.881Z,9.32
2018-01-26T06:16:34.034Z,10.15
2018-01-26T06:19:02.176Z,8.90
2018-01-26T06:21:30.294Z,11.43
2018-01-26T06:23:58.443Z,8.73
2018-01-26T06:26:26.562Z,10.18
2018-01-26T06:28:55.431Z,8.68
2018-01-26T06:31:23.615Z,11.35
2018-01-26T06:33:51.745Z,8.63
2018-01-26T06:36:20.234Z,11.60
2018-01-26T06:38:48.355Z,17.00
2018-01-26T06:41:16.482Z,16.27
2018-01-26T06:43:44.635Z,15.65
2018-01-26T06:46:12.768Z,10.73
2018-01-26T06:48:41.189Z,9.20
2018-01-26T06:51:09.302Z,15.27
2018-01-26T06:53:37.438Z,9.95
2018-01-26T06:56:05.575Z,9.85
2018-01-26T06:58:33.692Z,15.35
2018-01-26T07:01:01.825Z,11.70
2018-01-26T07:03:29.948Z,13.40
2018-01-26T07:05:58.836Z,10.10
2018-01-26T07:08:26.990Z,10.15
2018-01-26T07:10:55.869Z,10.35
2018-01-26T07:13:24.781Z,12.45
2018-01-26T07:15:52.898Z,13.93
2018-01-26T07:18:21.037Z,21.87
2018-01-26T07:20:50.005Z,12.37
2018-01-26T07:23:18.895Z,12.48
2018-01-26T07:25:47.396Z,11.00
2018-01-26T07:28:15.541Z,10.40
2018-01-26T07:30:44.408Z,9.60
2018-01-26T07:33:12.531Z,8.30
2018-01-26T07:35:40.639Z,11.12
2018-01-26T07:38:08.774Z,18.02
2018-01-26T07:40:36.879Z,11.55
2018-01-26T07:43:05.023Z,10.45
2018-01-26T07:45:33.145Z,8.18
2018-01-26T07:48:01.252Z,8.55
2018-01-26T07:50:29.390Z,10.98
2018-01-26T07:52:57.503Z,8.10
2018-01-26T07:55:25.631Z,12.60
2018-01-26T07:57:53.768Z,9.98
2018-01-26T08:00:21.883Z,10.95
2018-01-26T08:02:49.994Z,7.40
2018-01-26T08:05:18.181Z,15.32
2018-01-26T08:07:46.307Z,11.15
2018-01-26T08:10:14.469Z,9.75
2018-01-26T08:12:42.835Z,10.13
2018-01-26T08:15:10.951Z,12.35
2018-01-26T08:17:39.831Z,11.35
2018-01-26T08:20:07.964Z,14.95
2018-01-26T08:22:36.109Z,10.52
2018-01-26T08:25:04.243Z,9.73
2018-01-26T08:27:32.358Z,14.98
2018-01-26T08:30:00.485Z,8.50
2018-01-26T08:32:28.587Z,8.32
2018-01-26T08:34:58.140Z,16.70
2018-01-26T08:37:26.297Z,9.82
2018-01-26T08:39:54.454Z,8.15
2018-01-26T08:42:22.575Z,9.02
2018-01-26T08:44:50.686Z,19.77
2018-01-26T08:47:19.712Z,22.50
2018-01-26T08:49:47.852Z,13.77
2018-01-26T08:52:16.715Z,13.23
2018-01-26T08:54:44.845Z,8.45
2018-01-26T08:57:12.968Z,11.10
2018-01-26T08:59:41.103Z,15.77
2018-01-26T09:02:09.224Z,14.15
2018-01-26T09:04:38.220Z,8.60
2018-01-26T09:07:07.124Z,12.20
2018-01-26T09:09:35.239Z,15.68
2018-01-26T09:12:03.378Z,12.25
2018-01-26T09:14:31.491Z,16.15
2018-01-26T09:16:59.619Z,9.55
2018-01-26T09:19:27.767Z,13.35
2018-01-26T09:21:55.903Z,11.15
2018-01-26T09:24:24.033Z,13.20
2018-01-26T09:26:52.917Z,10.15
2018-01-26T09:29:21.802Z,10.82
2018-01-26T09:31:49.918Z,11.45
2018-01-26T09:34:18.059Z,13.82
2018-01-26T09:36:47.075Z,17.35
2018-01-26T09:39:15.194Z,30.02
2018-01-26T09:41:43.316Z,10.05
2018-01-26T09:44:11.432Z,11.82
2018-01-26T09:46:39.560Z,20.58
2018-01-26T09:49:07.693Z,15.45
2018-01-26T09:51:35.836Z,51.83
2018-01-26T09:54:03.948Z,10.82
2018-01-26T09:56:32.128Z,10.23
2018-01-26T09:59:01.023Z,12.93
2018-01-26T10:01:29.908Z,9.63
2018-01-26T10:03:58.033Z,11.27
2018-01-26T10:06:26.143Z,18.33
2018-01-26T10:08:54.364Z,11.40
2018-01-26T10:11:22.453Z,19.00
2018-01-26T10:13:51.427Z,15.77
2018-01-26T10:16:19.607Z,13.57
2018-01-26T10:18:47.724Z,23.42
2018-01-26T10:21:15.882Z,20.62
2018-01-26T10:23:43.991Z,16.02
2018-01-26T10:26:12.904Z,14.32
2018-01-26T10:28:41.021Z,15.27
2018-01-26T10:31:09.233Z,13.77
2018-01-26T10:33:38.116Z,9.50
2018-01-26T10:36:06.294Z,11.35
2018-01-26T10:38:34.427Z,22.27
2018-01-26T10:41:02.573Z,16.73
2018-01-26T10:43:31.455Z,9.57
2018-01-26T10:45:59.564Z,9.57
2018-01-26T10:48:27.710Z,10.10
2018-01-26T10:50:55.832Z,8.50
2018-01-26T10:53:23.980Z,12.50
2018-01-26T10:55:52.144Z,8.75
2018-01-26T10:58:20.261Z,11.70
2018-01-26T11:00:48.399Z,9.80
2018-01-26T11:03:16.513Z,9.00
2018-01-26T11:05:44.668Z,12.75
2018-01-26T11:08:12.782Z,9.98
2018-01-26T11:10:40.922Z,6.68
2018-01-26T11:13:09.063Z,10.38
2018-01-26T11:15:37.171Z,15.52
2018-01-26T11:18:05.304Z,10.20
2018-01-26T11:20:33.423Z,9.60
2018-01-26T11:23:01.946Z,17.70
2018-01-26T11:25:30.084Z,14.43
2018-01-26T11:27:58.962Z,8.27
2018-01-26T11:30:27.108Z,13.25
2018-01-26T11:32:55.304Z,10.73
2018-01-26T11:35:23.432Z,15.23
2018-01-26T11:37:51.547Z,11.50
2018-01-26T11:40:19.679Z,11.50
2018-01-26T11:42:47.791Z,6.57
2018-01-26T11:45:15.921Z,8.23
2018-01-26T11:47:44.867Z,11.70
2018-01-26T11:50:12.974Z,12.82
2018-01-26T11:52:41.151Z,13.85
2018-01-26T11:55:09.284Z,7.35
2018-01-26T11:57:37.807Z,12.48
2018-01-26T12:00:05.948Z,11.07
2018-01-26T12:02:34.052Z,13.15
2018-01-26T12:05:02.207Z,10.70
2018-01-26T12:07:30.326Z,15.93
2018-01-26T12:09:58.456Z,9.07
2018-01-26T12:12:27.359Z,8.63
2018-01-26T12:14:56.576Z,12.85
2018-01-26T12:17:24.770Z,7.82
2018-01-26T12:19:52.899Z,12.30
2018-01-26T12:22:21.052Z,8.30
2018-01-26T12:24:49.166Z,7.20
2018-01-26T12:27:17.306Z,28.20
2018-01-26T12:29:46.853Z,11.77
2018-01-26T12:32:15.009Z,16.48
2018-01-26T12:34:43.134Z,13.95
2018-01-26T12:37:11.269Z,11.07
2018-01-26T12:39:39.400Z,7.55
2018-01-26T12:42:07.512Z,10.52
2018-01-26T12:44:35.682Z,11.20
2018-01-26T12:47:03.796Z,7.95
2018-01-26T12:49:31.923Z,10.10
2018-01-26T12:52:00.056Z,8.63
2018-01-26T12:54:28.173Z,31.52
2018-01-26T12:56:56.300Z,12.35
2018-01-26T12:59:24.415Z,13.88
2018-01-26T13:01:52.551Z,9.82
2018-01-26T13:04:20.718Z,11.63
2018-01-26T13:06:48.875Z,17.23
2018-01-26T13:09:16.995Z,9.23
2018-01-26T13:11:45.903Z,17.05
2018-01-26T13:14:14.028Z,9.80
2018-01-26T13:16:42.152Z,10.20
2018-01-26T13:19:10.375Z,9.70
2018-01-26T13:21:38.522Z,8.35
2018-01-26T13:24:06.646Z,8.90
2018-01-26T13:26:35.555Z,11.70
2018-01-26T13:29:03.822Z,14.57
2018-01-26T13:31:32.747Z,10.35
2018-01-26T13:34:01.061Z,12.15
2018-01-26T13:36:29.202Z,8.75
2018-01-26T13:38:57.320Z,8.10
2018-01-26T13:41:25.442Z,15.98
2018-01-26T13:43:53.595Z,13.77
2018-01-26T13:46:22.472Z,12.77
2018-01-26T13:48:51.367Z,9.48
2018-01-26T13:51:20.260Z,14.60
2018-01-26T13:53:49.183Z,16.90
2018-01-26T13:56:17.307Z,11.73
2018-01-26T13:58:46.195Z,11.90
2018-01-26T14:01:14.324Z,6.53
2018-01-26T14:03:42.483Z,12.35
2018-01-26T14:06:10.620Z,10.60
2018-01-26T14:08:39.512Z,16.52
2018-01-26T14:11:08.701Z,21.42
2018-01-26T14:13:36.824Z,8.55
2018-01-26T14:16:04.943Z,11.48
2018-01-26T14:18:33.088Z,12.20
2018-01-26T14:21:01.204Z,7.95
2018-01-26T14:23:30.107Z,11.80
2018-01-26T14:25:59.003Z,17.52
2018-01-26T14:28:27.144Z,17.65
2018-01-26T14:30:55.276Z,14.45
2018-01-26T14:33:23.395Z,14.38
2018-01-26T14:35:51.864Z,13.62
2018-01-26T14:38:20.003Z,25.95
2018-01-26T14:40:48.143Z,15.77
2018-01-26T14:43:17.027Z,9.48
2018-01-26T14:45:45.940Z,16.33
2018-01-26T14:48:14.076Z,13.48
2018-01-26T14:50:42.221Z,21.80
2018-01-26T14:53:10.394Z,12.05
2018-01-26T14:55:38.545Z,21.80
2018-01-26T14:58:06.680Z,19.73
2018-01-26T15:00:34.812Z,21.95
2018-01-26T15:03:03.739Z,20.12
2018-01-26T15:05:31.867Z,13.32
2018-01-26T15:08:00.197Z,17.92
2018-01-26T15:10:28.450Z,13.73
2018-01-26T15:12:56.672Z,15.65
2018-01-26T15:15:25.572Z,9.95
2018-01-26T15:17:53.717Z,14.80
2018-01-26T15:20:21.884Z,14.20
2018-01-26T15:22:50.014Z,13.27
2018-01-26T15:25:18.166Z,14.38
2018-01-26T15:27:46.330Z,15.60
2018-01-26T15:30:15.209Z,18.48
2018-01-26T16:16:25.457Z,16.12
2018-01-26T16:18:54.348Z,17.48
2018-01-26T16:21:23.300Z,17.77
2018-01-26T16:23:51.435Z,14.45
2018-01-26T16:26:19.661Z,12.50
2018-01-26T16:28:47.783Z,10.48
2018-01-26T16:31:15.929Z,14.25
2018-01-26T16:33:44.094Z,13.68
2018-01-26T16:36:12.328Z,19.60
2018-01-26T16:38:40.519Z,17.12
2018-01-26T16:41:08.796Z,15.88
2018-01-26T16:43:36.957Z,20.00
2018-01-26T16:46:05.889Z,19.35
2018-01-26T16:48:34.021Z,17.12
2018-01-26T16:51:02.179Z,12.70
2018-01-26T16:53:30.304Z,24.75
2018-01-26T16:55:58.435Z,18.67
2018-01-26T16:58:26.561Z,19.62
2018-01-26T17:00:54.696Z,23.85
2018-01-26T17:03:22.851Z,22.80
2018-01-26T17:05:51.027Z,20.17
2018-01-26T17:08:19.165Z,17.05
2018-01-26T17:10:47.301Z,19.55
2018-01-26T17:13:15.545Z,24.23
2018-01-26T17:15:43.669Z,13.32
2018-01-26T17:18:12.097Z,17.45
2018-01-26T17:20:40.248Z,17.23
2018-01-26T17:23:08.418Z,18.70
2018-01-26T17:25:36.564Z,17.05
2018-01-26T17:28:04.700Z,18.30
2018-01-26T17:30:32.851Z,22.15
2018-01-26T17:33:01.737Z,15.18
2018-01-26T17:35:30.964Z,24.23
2018-01-26T17:37:59.136Z,25.75
2018-01-26T17:40:27.263Z,18.52
2018-01-26T17:42:55.412Z,14.23
2018-01-26T17:45:23.536Z,13.45
2018-01-26T17:47:51.671Z,18.50
2018-01-26T17:50:19.820Z,11.48
2018-01-26T17:52:47.979Z,24.80
2018-01-26T17:55:16.140Z,26.12
2018-01-26T17:57:44.324Z,46.13
2018-01-26T18:00:12.592Z,18.92
2018-01-26T18:02:41.509Z,25.60
2018-01-26T18:05:09.656Z,38.92
2018-01-26T18:07:37.940Z,26.40
2018-01-26T18:10:06.092Z,21.80
2018-01-26T18:12:35.323Z,17.42
2018-01-26T18:15:03.511Z,23.55
2018-01-26T18:17:31.807Z,20.80
2018-01-26T18:19:59.921Z,29.87
2018-01-26T18:22:28.829Z,24.80
2018-01-26T18:24:56.976Z,23.70
2018-01-26T18:27:26.008Z,24.87
2018-01-26T18:29:54.156Z,29.20
2018-01-26T18:32:22.338Z,21.85
2018-01-26T18:34:50.476Z,20.20
2018-01-26T18:37:18.608Z,21.75
2018-01-26T18:39:46.756Z,23.27
2018-01-26T18:42:14.897Z,24.63
2018-01-26T18:44:43.059Z,15.77
2018-01-26T18:47:11.987Z,19.15
2018-01-26T18:49:40.116Z,26.62
2018-01-26T18:52:08.570Z,29.02
2018-01-26T18:54:36.710Z,19.77
2018-01-26T18:57:05.608Z,18.23
2018-01-26T18:59:33.760Z,22.08
2018-01-26T19:02:01.896Z,20.80
2018-01-26T19:04:30.123Z,19.60
2018-01-26T19:06:59.016Z,25.37
2018-01-26T19:09:28.267Z,21.33
2018-01-26T19:11:56.400Z,22.92
2018-01-26T19:14:24.541Z,27.45
2018-01-26T19:16:52.684Z,22.90
2018-01-26T19:19:20.823Z,26.05
2018-01-26T19:21:49.030Z,21.02
2018-01-26T19:24:17.182Z,20.67
2018-01-26T19:26:46.176Z,17.73
2018-01-26T19:29:14.348Z,25.35
2018-01-26T19:31:42.463Z,19.35
2018-01-26T19:34:10.605Z,20.67
2018-01-26T19:36:38.724Z,30.52
2018-01-26T19:39:06.880Z,19.37
2018-01-26T19:41:35.027Z,30.42
2018-01-26T19:44:03.172Z,28.58
2018-01-26T19:46:31.417Z,27.08
2018-01-26T19:48:59.586Z,21.10
2018-01-26T19:51:27.761Z,22.27
2018-01-26T19:53:55.897Z,26.20
2018-01-26T19:56:24.101Z,25.92
2018-01-26T19:58:52.442Z,23.85
2018-01-26T20:01:20.996Z,30.77
2018-01-26T20:04:01.741Z,30.30
2018-01-26T20:06:47.479Z,24.05
2018-01-26T20:09:15.614Z,21.73
2018-01-26T20:11:46.356Z,24.15
2018-01-26T20:14:20.190Z,27.67
2018-01-26T20:16:48.317Z,28.62
2018-01-26T20:19:16.467Z,30.80
2018-01-26T20:21:44.612Z,25.02
2018-01-26T20:24:12.760Z,25.83
2018-01-26T20:26:41.660Z,28.73
2018-01-26T20:29:10.561Z,29.50
2018-01-26T20:31:38.760Z,29.35
2018-01-26T20:34:06.904Z,32.30
2018-01-26T20:36:35.811Z,25.58
2018-01-26T20:39:04.036Z,19.35
2018-01-26T20:41:32.179Z,26.80
2018-01-26T20:44:00.311Z,26.75
2018-01-26T20:46:28.467Z,31.60
2018-01-26T20:48:57.400Z,24.00
2018-01-26T20:51:25.529Z,31.77
2018-01-26T20:53:53.675Z,55.92
2018-01-26T20:56:21.800Z,39.80
2018-01-26T20:58:49.957Z,25.83
2018-01-26T21:01:18.860Z,30.35
2018-01-26T21:03:47.776Z,23.92
2018-01-26T21:06:15.916Z,31.73
2018-01-26T21:08:44.840Z,32.33
2018-01-26T21:11:12.981Z,29.48
2018-01-26T21:13:41.878Z,23.38
2018-01-26T21:16:11.100Z,25.30
2018-01-26T21:18:39.240Z,35.15
2018-01-26T21:21:07.386Z,29.35
2018-01-26T21:23:35.537Z,24.90
2018-01-26T21:26:03.698Z,19.05
2018-01-26T21:28:31.856Z,49.03
2018-01-26T21:31:00.741Z,26.27
2018-01-26T21:33:29.656Z,23.30
2018-01-26T21:35:57.806Z,20.80
2018-01-26T21:38:26.697Z,21.55
2018-01-26T21:40:55.640Z,27.77
2018-01-26T21:43:23.771Z,35.30
2018-01-26T21:45:51.923Z,27.95
2018-01-26T21:48:20.811Z,20.27
2018-01-26T21:50:49.788Z,25.67
2018-01-26T21:53:17.916Z,22.45
2018-01-26T21:55:46.044Z,32.17
2018-01-26T21:58:14.178Z,34.17
2018-01-26T22:00:42.314Z,36.53
2018-01-26T22:03:11.256Z,35.47
2018-01-26T22:05:39.380Z,27.00
2018-01-26T22:08:08.300Z,28.48
2018-01-26T22:10:36.432Z,21.67
2018-01-26T22:13:05.623Z,28.48
2018-01-26T22:15:33.768Z,25.45
2018-01-26T22:18:01.883Z,27.70
2018-01-26T22:20:30.797Z,24.05
2018-01-26T22:22:58.934Z,30.60
2018-01-26T22:25:27.086Z,25.37
2018-01-26T22:27:55.204Z,51.63
2018-01-26T22:30:23.357Z,39.58
2018-01-26T22:32:52.251Z,43.00
2018-01-26T22:35:21.148Z,34.45
2018-01-26T22:37:50.064Z,28.80
2018-01-26T22:40:18.211Z,35.00
2018-01-26T22:42:47.125Z,35.25
2018-01-26T22:45:15.259Z,43.22
2018-01-26T22:47:43.417Z,65.28
2018-01-26T22:50:11.614Z,56.58
2018-01-26T22:52:39.737Z,39.90
2018-01-26T22:55:07.893Z,27.33
2018-01-26T22:57:36.037Z,28.77
2018-01-26T23:00:04.319Z,32.85
2018-01-26T23:02:33.226Z,30.55
2018-01-26T23:05:02.205Z,32.15
2018-01-26T23:07:31.145Z,24.35
2018-01-26T23:09:59.302Z,29.77
2018-01-26T23:12:27.697Z,37.60
2018-01-26T23:14:55.848Z,31.58
2018-01-26T23:17:24.058Z,34.67
2018-01-26T23:19:52.536Z,25.50
2018-01-26T23:22:21.247Z,31.33
2018-01-26T23:24:50.040Z,45.40
2018-01-26T23:27:18.260Z,37.83
2018-01-26T23:29:46.399Z,41.78
2018-01-26T23:32:14.628Z,34.80
2018-01-26T23:34:42.835Z,40.83
2018-01-26T23:37:12.808Z,30.65
2018-01-26T23:39:41.311Z,31.15
2018-01-26T23:42:09.490Z,30.33
2018-01-26T23:44:37.615Z,31.35
2018-01-26T23:47:06.692Z,29.52
2018-01-26T23:49:35.056Z,38.15
2018-01-26T23:54:37.645Z,39.67
2018-01-26T23:57:05.789Z,32.75
2018-01-26T23:59:33.928Z,35.67
